createdAt,value
2022-10-18T00:02:07.591Z,83.96
2022-10-18T00:04:34.361Z,84.10
2022-10-18T00:07:00.921Z,84.76
2022-10-18T00:09:27.755Z,84.52
2022-10-18T00:11:55.407Z,84.18
2022-10-18T00:14:22.620Z,84.93
2022-10-18T00:16:49.174Z,85.03
2022-10-18T00:19:15.778Z,84.96
2022-10-18T00:24:11.355Z,85.31
2022-10-18T00:26:37.881Z,84.87
2022-10-18T00:29:05.844Z,86.14
2022-10-18T00:31:36.184Z,84.79
2022-10-18T00:34:05.683Z,85.56
2022-10-18T00:36:34.261Z,85.53
2022-10-18T00:39:02.006Z,85.15
2022-10-18T00:41:31.941Z,85.06
2022-10-18T00:43:59.774Z,85.08
2022-10-18T00:46:32.089Z,84.74
2022-10-18T00:49:01.087Z,84.62
2022-10-18T00:51:34.033Z,84.61
2022-10-18T00:54:00.602Z,84.56
2022-10-18T00:56:27.529Z,84.85
2022-10-18T00:58:54.172Z,84.87
2022-10-18T01:01:24.428Z,84.93
2022-10-18T01:03:54.617Z,85.43
2022-10-18T01:06:21.374Z,85.43
2022-10-18T01:09:17.970Z,85.50
2022-10-18T01:12:16.341Z,85.72
2022-10-18T01:14:47.088Z,84.52
2022-10-18T01:17:20.308Z,85.49
2022-10-18T01:20:31.194Z,86.14
2022-10-18T01:23:19.078Z,85.26
2022-10-18T01:26:23.310Z,86.03
2022-10-18T01:29:05.238Z,85.86
2022-10-18T01:31:39.339Z,85.52
2022-10-18T01:34:10.241Z,86.29
2022-10-18T01:36:41.175Z,85.60
2022-10-18T01:39:19.749Z,86.84
2022-10-18T01:41:49.211Z,85.73
2022-10-18T01:44:20.646Z,87.33
2022-10-18T01:46:48.161Z,86.85
2022-10-18T01:49:14.786Z,86.13
2022-10-18T01:51:41.398Z,86.48
2022-10-18T01:54:10.058Z,86.82
2022-10-18T01:56:45.721Z,87.62
2022-10-18T01:59:24.146Z,86.24
2022-10-18T02:01:59.649Z,86.75
2022-10-18T02:04:35.170Z,86.82
2022-10-18T02:07:43.697Z,87.19
2022-10-18T02:10:18.067Z,86.54
2022-10-18T02:12:46.673Z,86.58
2022-10-18T02:15:17.309Z,86.46
2022-10-18T02:17:45.227Z,85.90
2022-10-18T02:20:16.026Z,87.40
2022-10-18T02:22:45.956Z,85.72
2022-10-18T02:25:17.903Z,85.85
2022-10-18T02:27:44.723Z,86.69
2022-10-18T02:30:12.137Z,86.80
2022-10-18T02:32:44.680Z,86.51
2022-10-18T02:35:16.423Z,86.96
2022-10-18T02:37:45.336Z,86.93
2022-10-18T02:40:12.086Z,86.55
2022-10-18T02:42:54.571Z,87.20
2022-10-18T02:45:21.582Z,86.98
2022-10-18T02:47:48.232Z,87.71
2022-10-18T02:50:15.120Z,87.25
2022-10-18T02:52:41.773Z,88.47
2022-10-18T02:55:09.363Z,88.11
2022-10-18T02:57:36.601Z,88.39
2022-10-18T03:00:05.862Z,88.42
2022-10-18T03:02:32.472Z,88.56
2022-10-18T03:04:59.073Z,87.88
2022-10-18T03:07:25.842Z,87.91
2022-10-18T03:09:52.442Z,88.51
2022-10-18T03:12:18.962Z,88.29
2022-10-18T03:14:45.557Z,88.28
2022-10-18T03:17:12.201Z,88.40
2022-10-18T03:19:38.798Z,87.75
2022-10-18T03:22:05.806Z,88.35
2022-10-18T03:24:32.458Z,87.66
2022-10-18T03:26:59.047Z,88.10
2022-10-18T03:29:25.634Z,88.33
2022-10-18T03:31:52.183Z,87.65
2022-10-18T03:34:18.756Z,88.03
2022-10-18T03:36:45.304Z,87.96
2022-10-18T03:39:12.757Z,88.53
2022-10-18T03:41:39.363Z,89.01
2022-10-18T03:44:05.913Z,87.95
2022-10-18T03:46:32.478Z,87.37
2022-10-18T03:48:59.037Z,88.17
2022-10-18T03:51:25.531Z,88.14
2022-10-18T03:53:52.092Z,88.08
2022-10-18T03:56:18.639Z,87.79
2022-10-18T03:58:45.166Z,87.67
2022-10-18T04:01:11.991Z,87.86
2022-10-18T04:03:38.663Z,87.98
2022-10-18T04:06:05.245Z,87.27
2022-10-18T04:08:31.810Z,87.42
2022-10-18T04:10:58.360Z,87.64
2022-10-18T04:13:24.893Z,87.32
2022-10-18T04:15:51.510Z,87.14
2022-10-18T04:18:18.168Z,86.94
2022-10-18T04:20:44.694Z,87.67
2022-10-18T04:23:11.291Z,88.05
2022-10-18T04:25:37.907Z,87.11
2022-10-18T04:28:04.727Z,87.03
2022-10-18T04:30:31.296Z,86.97
2022-10-18T04:32:57.802Z,87.67
2022-10-18T04:35:25.954Z,87.26
2022-10-18T04:37:52.493Z,87.11
2022-10-18T04:40:19.937Z,87.78
2022-10-18T04:42:47.342Z,87.10
2022-10-18T04:45:13.915Z,87.35
2022-10-18T04:47:40.495Z,87.28
2022-10-18T04:50:07.467Z,87.29
2022-10-18T04:52:34.065Z,87.37
2022-10-18T04:55:00.580Z,86.81
2022-10-18T04:57:27.742Z,87.29
2022-10-18T04:59:54.338Z,86.69
2022-10-18T05:02:20.909Z,86.81
2022-10-18T05:04:47.472Z,86.75
2022-10-18T05:07:14.321Z,86.87
2022-10-18T05:09:40.925Z,86.63
2022-10-18T05:12:07.501Z,86.98
2022-10-18T05:14:34.087Z,86.91
2022-10-18T05:17:00.626Z,86.88
2022-10-18T05:19:27.222Z,86.42
2022-10-18T05:21:53.799Z,86.48
2022-10-18T05:24:21.991Z,87.09
2022-10-18T05:26:50.907Z,87.09
2022-10-18T05:29:17.616Z,86.35
2022-10-18T05:31:44.235Z,87.25
2022-10-18T05:34:10.765Z,86.72
2022-10-18T05:36:37.358Z,87.54
2022-10-18T05:39:05.366Z,86.42
2022-10-18T05:41:32.065Z,87.02
2022-10-18T05:43:58.724Z,86.90
2022-10-18T05:46:25.368Z,86.81
2022-10-18T05:48:52.205Z,86.52
2022-10-18T05:51:19.061Z,86.57
2022-10-18T05:53:45.654Z,86.37
2022-10-18T05:56:12.189Z,86.41
2022-10-18T05:58:38.865Z,87.15
2022-10-18T06:01:06.272Z,86.50
2022-10-18T06:03:33.529Z,86.69
2022-10-18T06:06:05.098Z,87.34
2022-10-18T06:08:32.350Z,87.54
2022-10-18T06:10:59.325Z,86.88
2022-10-18T06:13:26.432Z,86.85
2022-10-18T06:15:57.446Z,87.56
2022-10-18T06:18:24.011Z,86.36
2022-10-18T06:20:56.501Z,86.54
2022-10-18T06:23:23.036Z,87.33
2022-10-18T06:25:49.593Z,86.16
2022-10-18T06:28:16.111Z,86.89
2022-10-18T06:30:42.770Z,86.92
2022-10-18T06:33:11.842Z,86.18
2022-10-18T06:35:38.385Z,86.39
2022-10-18T06:38:06.218Z,85.67
2022-10-18T06:40:37.977Z,86.32
2022-10-18T06:43:19.919Z,86.21
2022-10-18T06:45:47.052Z,86.67
2022-10-18T06:48:13.639Z,85.42
2022-10-18T06:50:40.298Z,85.73
2022-10-18T06:53:08.617Z,85.77
2022-10-18T06:55:36.105Z,85.73
2022-10-18T06:58:02.814Z,85.99
2022-10-18T07:00:29.507Z,85.61
2022-10-18T07:02:58.155Z,85.15
2022-10-18T07:05:25.038Z,85.28
2022-10-18T07:07:54.296Z,84.97
2022-10-18T07:10:25.176Z,84.26
2022-10-18T07:12:56.026Z,84.95
2022-10-18T07:15:29.969Z,84.36
2022-10-18T07:17:56.997Z,84.60
2022-10-18T07:20:23.655Z,84.04
2022-10-18T07:22:50.287Z,83.85
2022-10-18T07:25:16.905Z,84.49
2022-10-18T07:27:43.581Z,83.72
2022-10-18T07:30:11.141Z,83.73
2022-10-18T07:32:37.755Z,83.70
2022-10-18T07:35:04.634Z,83.58
2022-10-18T07:37:31.911Z,83.71
2022-10-18T07:39:58.715Z,83.61
2022-10-18T07:42:25.290Z,83.33
2022-10-18T07:44:51.903Z,83.89
2022-10-18T07:47:18.470Z,83.00
2022-10-18T07:49:45.057Z,83.56
2022-10-18T07:52:11.727Z,82.53
2022-10-18T07:54:38.387Z,82.12
2022-10-18T07:57:05.182Z,82.24
2022-10-18T07:59:31.739Z,81.64
2022-10-18T08:01:58.360Z,81.50
2022-10-18T08:04:24.977Z,81.43
2022-10-18T08:06:51.790Z,81.72
2022-10-18T08:09:18.335Z,81.24
2022-10-18T08:11:45.079Z,81.44
2022-10-18T08:14:11.635Z,81.06
2022-10-18T08:16:38.210Z,80.28
2022-10-18T08:19:04.798Z,80.43
2022-10-18T08:21:31.772Z,80.20
2022-10-18T08:23:58.412Z,80.12
2022-10-18T08:26:25.136Z,80.05
2022-10-18T08:29:10.399Z,80.22
2022-10-18T08:31:38.310Z,79.07
2022-10-18T08:34:04.970Z,79.19
2022-10-18T08:36:31.566Z,79.85
2022-10-18T08:38:58.130Z,79.47
2022-10-18T08:41:36.897Z,79.93
2022-10-18T08:44:26.366Z,79.59
2022-10-18T08:47:04.069Z,78.80
2022-10-18T08:49:47.099Z,79.06
2022-10-18T08:52:21.610Z,78.64
2022-10-18T08:54:59.545Z,78.39
2022-10-18T08:57:26.405Z,78.52
2022-10-18T08:59:53.156Z,78.95
2022-10-18T09:02:40.897Z,77.86
2022-10-18T09:05:28.401Z,78.08
2022-10-18T09:08:36.459Z,77.71
2022-10-18T09:11:15.144Z,78.18
2022-10-18T09:14:17.489Z,78.43
2022-10-18T09:17:05.852Z,79.27
2022-10-18T09:22:50.810Z,78.19
2022-10-18T09:25:20.909Z,78.07
2022-10-18T09:27:53.606Z,78.03
2022-10-18T09:30:41.736Z,78.00
2022-10-18T09:33:32.993Z,77.61
2022-10-18T09:36:02.197Z,76.80
2022-10-18T09:38:33.520Z,77.36
2022-10-18T09:41:16.715Z,76.87
2022-10-18T09:43:52.608Z,76.50
2022-10-18T09:46:21.411Z,76.77
2022-10-18T09:49:01.774Z,76.06
2022-10-18T09:51:35.473Z,76.34
2022-10-18T09:54:14.026Z,75.83
2022-10-18T09:57:07.845Z,74.84
2022-10-18T09:59:42.684Z,75.37
2022-10-18T10:02:18.141Z,74.35
2022-10-18T10:04:45.054Z,75.45
2022-10-18T10:07:19.820Z,75.23
2022-10-18T10:10:03.938Z,74.87
2022-10-18T10:12:32.379Z,75.92
2022-10-18T10:15:23.073Z,75.29
2022-10-18T10:18:31.415Z,76.12
2022-10-18T10:21:00.856Z,76.09
2022-10-18T10:23:36.122Z,75.90
2022-10-18T10:26:20.221Z,75.78
2022-10-18T10:28:48.867Z,76.09
2022-10-18T10:31:18.821Z,76.29
2022-10-18T10:33:47.563Z,76.07
2022-10-18T10:36:19.127Z,75.65
2022-10-18T10:38:45.784Z,76.18
2022-10-18T10:41:23.378Z,76.17
2022-10-18T10:43:50.957Z,75.75
2022-10-18T10:46:23.049Z,75.53
2022-10-18T10:49:04.175Z,75.47
2022-10-18T10:51:40.192Z,75.49
2022-10-18T10:54:18.452Z,74.56
2022-10-18T10:56:58.020Z,75.08
2022-10-18T10:59:27.803Z,75.39
2022-10-18T11:02:17.753Z,75.11
2022-10-18T11:04:46.373Z,74.78
2022-10-18T11:07:36.514Z,74.19
2022-10-18T11:10:12.350Z,73.90
2022-10-18T11:12:47.637Z,73.48
2022-10-18T11:15:22.264Z,73.19
2022-10-18T11:18:07.711Z,74.26
2022-10-18T11:20:42.590Z,72.97
2022-10-18T11:23:13.514Z,73.03
2022-10-18T11:25:55.676Z,71.25
2022-10-18T11:28:32.123Z,72.31
2022-10-18T11:31:01.512Z,71.68
2022-10-18T11:34:08.152Z,68.88
2022-10-18T11:37:27.228Z,68.98
2022-10-18T11:39:57.181Z,68.50
2022-10-18T11:42:55.490Z,67.09
2022-10-18T11:48:10.523Z,67.85
2022-10-18T11:50:53.938Z,67.55
2022-10-18T11:53:35.034Z,65.00
2022-10-18T11:56:25.183Z,64.81
2022-10-18T11:59:05.837Z,65.94
2022-10-18T12:02:04.867Z,65.72
2022-10-18T12:04:40.927Z,67.34
2022-10-18T12:07:24.694Z,67.11
2022-10-18T12:09:55.847Z,66.91
2022-10-18T12:12:29.067Z,64.90
2022-10-18T12:14:57.415Z,65.27
2022-10-18T12:17:48.887Z,66.81
2022-10-18T12:20:25.683Z,64.51
2022-10-18T12:23:12.994Z,65.68
2022-10-18T12:25:44.858Z,66.35
2022-10-18T12:28:37.435Z,66.04
2022-10-18T12:31:13.540Z,68.00
2022-10-18T12:33:44.659Z,69.13
2022-10-18T12:36:52.019Z,68.77
2022-10-18T12:39:37.575Z,69.75
2022-10-18T12:42:29.247Z,70.07
2022-10-18T12:45:19.994Z,70.82
2022-10-18T12:47:46.557Z,71.35
2022-10-18T12:50:38.063Z,71.76
2022-10-18T12:53:26.736Z,72.02
2022-10-18T12:55:54.041Z,72.49
2022-10-18T12:58:20.616Z,73.34
2022-10-18T13:00:47.732Z,73.39
2022-10-18T13:03:16.535Z,74.42
2022-10-18T13:05:54.834Z,75.58
2022-10-18T13:08:31.715Z,76.63
2022-10-18T13:11:01.372Z,77.69
2022-10-18T13:13:45.436Z,78.77
2022-10-18T13:16:33.906Z,79.45
2022-10-18T13:19:26.044Z,81.17
2022-10-18T13:22:31.353Z,81.00
2022-10-18T13:25:14.133Z,81.25
2022-10-18T13:27:49.805Z,80.50
2022-10-18T13:30:31.414Z,82.16
2022-10-18T13:33:22.953Z,80.73
2022-10-18T13:35:50.336Z,80.08
2022-10-18T13:38:32.145Z,81.54
2022-10-18T13:41:15.997Z,82.17
2022-10-18T13:44:04.223Z,81.70
2022-10-18T13:46:33.748Z,80.70
2022-10-18T13:49:20.551Z,80.01
2022-10-18T13:52:02.018Z,80.76
2022-10-18T13:54:41.061Z,80.32
2022-10-18T13:57:50.253Z,81.07
2022-10-18T14:00:16.763Z,80.10
2022-10-18T14:03:22.190Z,80.64
2022-10-18T14:06:15.007Z,80.16
2022-10-18T14:09:06.162Z,79.96
2022-10-18T14:11:46.284Z,79.75
2022-10-18T14:14:36.506Z,80.89
2022-10-18T14:17:28.214Z,80.38
2022-10-18T14:20:15.368Z,80.38
2022-10-18T14:22:48.212Z,79.84
2022-10-18T14:25:35.805Z,79.72
2022-10-18T14:28:13.015Z,79.22
2022-10-18T14:31:00.041Z,79.48
2022-10-18T14:33:28.384Z,79.44
2022-10-18T14:36:19.479Z,79.42
2022-10-18T14:38:45.978Z,79.54
2022-10-18T14:41:18.191Z,79.56
2022-10-18T14:43:44.896Z,79.45
2022-10-18T14:46:19.146Z,79.80
2022-10-18T14:49:00.133Z,80.41
2022-10-18T14:51:28.158Z,81.05
2022-10-18T14:53:55.235Z,80.48
2022-10-18T14:56:27.599Z,81.16
2022-10-18T14:58:56.101Z,80.81
2022-10-18T15:01:27.475Z,80.90
2022-10-18T15:04:08.029Z,82.24
2022-10-18T15:06:34.602Z,81.28
2022-10-18T15:09:04.297Z,80.89
2022-10-18T15:11:31.637Z,81.81
2022-10-18T15:14:08.719Z,81.59
2022-10-18T15:16:38.621Z,81.16
2022-10-18T15:19:42.811Z,82.08
2022-10-18T15:25:05.386Z,82.47
2022-10-18T15:27:35.750Z,81.85
2022-10-18T15:30:15.711Z,82.20
2022-10-18T15:33:00.246Z,82.20
2022-10-18T15:35:30.210Z,82.45
2022-10-18T15:38:00.102Z,81.90
2022-10-18T15:40:30.393Z,82.30
2022-10-18T15:43:00.129Z,82.48
2022-10-18T15:45:32.042Z,82.58
2022-10-18T15:48:16.850Z,81.76
2022-10-18T15:50:48.369Z,83.00
2022-10-18T15:53:21.016Z,82.80
2022-10-18T15:55:50.208Z,82.19
2022-10-18T15:58:29.913Z,83.29
2022-10-18T16:01:00.446Z,82.66
2022-10-18T16:03:28.397Z,82.03
2022-10-18T16:06:06.595Z,82.64
2022-10-18T16:08:40.493Z,82.79
2022-10-18T16:11:12.844Z,81.96
2022-10-18T16:13:39.442Z,82.62
2022-10-18T16:16:06.170Z,81.89
2022-10-18T16:18:33.278Z,82.15
2022-10-18T16:21:02.014Z,82.49
2022-10-18T16:23:29.302Z,82.07
2022-10-18T16:25:56.063Z,82.01
2022-10-18T16:28:25.226Z,82.10
2022-10-18T16:31:00.330Z,82.39
2022-10-18T16:33:28.024Z,82.27
2022-10-18T16:35:54.662Z,82.75
2022-10-18T16:38:32.673Z,82.73
2022-10-18T16:41:02.441Z,81.70
2022-10-18T16:43:29.016Z,82.32
2022-10-18T16:45:55.705Z,82.30
2022-10-18T16:48:24.353Z,83.05
2022-10-18T16:50:54.095Z,82.40
2022-10-18T16:53:23.445Z,82.90
2022-10-18T16:55:55.646Z,83.39
2022-10-18T17:00:55.264Z,83.20
2022-10-18T17:03:22.338Z,83.22
2022-10-18T17:05:49.175Z,82.80
2022-10-18T17:08:21.198Z,83.52
2022-10-18T17:10:49.704Z,83.17
2022-10-18T17:13:16.663Z,83.88
2022-10-18T17:15:44.427Z,84.08
2022-10-18T17:18:23.482Z,84.69
2022-10-18T17:20:50.351Z,83.63
2022-10-18T17:23:16.946Z,83.45
2022-10-18T17:25:57.464Z,84.21
2022-10-18T17:28:31.448Z,83.15
2022-10-18T17:30:58.082Z,83.26
2022-10-18T17:33:24.697Z,84.44
2022-10-18T17:35:51.263Z,83.90
2022-10-18T17:38:17.883Z,83.43
2022-10-18T17:40:44.518Z,84.30
2022-10-18T17:43:13.367Z,84.35
2022-10-18T17:45:51.085Z,85.37
2022-10-18T17:48:18.010Z,85.28
2022-10-18T17:50:44.765Z,84.97
2022-10-18T17:53:12.937Z,83.94
2022-10-18T17:55:40.384Z,84.41
2022-10-18T17:58:06.964Z,84.36
2022-10-18T18:00:33.585Z,84.96
2022-10-18T18:03:01.055Z,85.04
2022-10-18T18:05:33.172Z,85.29
2022-10-18T18:08:03.888Z,85.40
2022-10-18T18:10:33.493Z,85.72
2022-10-18T18:13:00.565Z,86.20
2022-10-18T18:15:28.378Z,85.37
2022-10-18T18:17:58.428Z,85.17
2022-10-18T18:20:26.068Z,85.00
2022-10-18T18:22:53.085Z,85.24
2022-10-18T18:25:19.715Z,85.27
2022-10-18T18:27:46.290Z,85.65
2022-10-18T18:30:12.955Z,85.75
2022-10-18T18:32:39.588Z,85.38
2022-10-18T18:35:06.485Z,84.90
2022-10-18T18:37:33.032Z,85.05
2022-10-18T18:39:59.551Z,84.88
2022-10-18T18:42:26.194Z,85.07
2022-10-18T18:44:52.729Z,85.12
2022-10-18T18:47:21.667Z,84.78
2022-10-18T18:49:49.341Z,84.84
2022-10-18T18:52:15.874Z,85.27
2022-10-18T18:54:42.491Z,85.41
2022-10-18T18:57:09.058Z,84.88
2022-10-18T18:59:35.675Z,85.00
2022-10-18T19:02:02.219Z,84.69
2022-10-18T19:04:29.081Z,85.37
2022-10-18T19:06:55.845Z,84.57
2022-10-18T19:09:22.918Z,85.06
2022-10-18T19:11:55.136Z,84.63
2022-10-18T19:14:24.905Z,84.41
2022-10-18T19:16:54.306Z,84.52
2022-10-18T19:19:23.522Z,84.76
2022-10-18T19:21:56.849Z,84.82
2022-10-18T19:24:25.072Z,84.92
2022-10-18T19:26:55.830Z,85.18
2022-10-18T19:29:31.783Z,85.18
2022-10-18T19:32:00.421Z,84.50
2022-10-18T19:34:29.980Z,85.60
2022-10-18T19:36:57.279Z,86.28
2022-10-18T19:39:25.133Z,85.72
2022-10-18T19:41:56.757Z,86.31
2022-10-18T19:44:25.450Z,85.84
2022-10-18T19:46:52.115Z,85.10
2022-10-18T19:49:18.891Z,85.36
2022-10-18T19:51:45.956Z,85.16
2022-10-18T19:54:15.087Z,85.30
2022-10-18T19:56:42.105Z,84.60
2022-10-18T19:59:10.045Z,84.60
2022-10-18T20:01:37.123Z,84.70
2022-10-18T20:04:04.780Z,85.11
2022-10-18T20:06:31.829Z,83.67
2022-10-18T20:08:58.724Z,83.25
2022-10-18T20:11:27.442Z,83.72
2022-10-18T20:13:54.784Z,83.46
2022-10-18T20:16:28.162Z,83.75
2022-10-18T20:18:56.865Z,84.31
2022-10-18T20:21:23.654Z,82.21
2022-10-18T20:23:50.266Z,82.60
2022-10-18T20:26:20.462Z,83.06
2022-10-18T20:28:55.758Z,82.85
2022-10-18T20:31:38.867Z,82.81
2022-10-18T20:34:08.404Z,82.92
2022-10-18T20:36:35.689Z,83.33
2022-10-18T20:39:04.828Z,83.40
2022-10-18T20:41:34.628Z,83.07
2022-10-18T20:44:03.843Z,83.67
2022-10-18T20:46:33.401Z,83.49
2022-10-18T20:49:00.976Z,83.85
2022-10-18T20:51:28.015Z,82.91
2022-10-18T20:53:54.842Z,83.39
2022-10-18T20:56:25.198Z,84.31
2022-10-18T20:58:53.691Z,84.07
2022-10-18T21:01:22.937Z,83.66
2022-10-18T21:03:51.794Z,83.95
2022-10-18T21:06:21.127Z,83.64
2022-10-18T21:08:51.508Z,83.43
2022-10-18T21:11:18.143Z,83.94
2022-10-18T21:13:49.939Z,83.93
2022-10-18T21:16:16.523Z,83.87
2022-10-18T21:18:43.018Z,83.74
2022-10-18T21:21:19.023Z,83.52
2022-10-18T21:23:46.400Z,83.90
2022-10-18T21:26:17.317Z,83.30
2022-10-18T21:28:43.941Z,83.18
2022-10-18T21:31:19.349Z,83.40
2022-10-18T21:33:46.778Z,83.94
2022-10-18T21:36:15.829Z,83.71
2022-10-18T21:38:45.750Z,84.34
2022-10-18T21:41:14.630Z,84.03
2022-10-18T21:43:43.681Z,84.56
2022-10-18T21:46:11.301Z,84.27
2022-10-18T21:48:38.806Z,84.77
2022-10-18T21:51:07.405Z,84.67
2022-10-18T21:53:34.560Z,84.48
2022-10-18T21:56:06.810Z,84.26
2022-10-18T21:58:35.017Z,84.74
2022-10-18T22:01:02.829Z,84.14
2022-10-18T22:03:29.421Z,83.96
2022-10-18T22:06:07.983Z,84.67
2022-10-18T22:08:35.531Z,84.19
2022-10-18T22:11:02.546Z,84.45
2022-10-18T22:13:29.261Z,85.07
2022-10-18T22:15:55.910Z,85.37
2022-10-18T22:18:22.477Z,85.85
2022-10-18T22:20:57.206Z,86.12
2022-10-18T22:23:23.983Z,86.26
2022-10-18T22:25:50.634Z,85.66
2022-10-18T22:28:17.352Z,86.15
2022-10-18T22:30:44.107Z,86.34
2022-10-18T22:33:10.710Z,86.74
2022-10-18T22:35:37.273Z,86.16
2022-10-18T22:38:03.908Z,86.12
2022-10-18T22:40:30.471Z,86.34
2022-10-18T22:42:57.034Z,88.21
2022-10-18T22:45:23.673Z,88.74
2022-10-18T22:47:50.310Z,88.24
2022-10-18T22:50:16.844Z,87.63
2022-10-18T22:52:43.480Z,87.68
2022-10-18T22:55:10.013Z,87.21
2022-10-18T22:57:36.642Z,89.10
2022-10-18T23:00:04.127Z,87.87
2022-10-18T23:02:30.811Z,88.83
2022-10-18T23:04:57.450Z,87.92
2022-10-18T23:07:24.004Z,88.09
2022-10-18T23:09:50.572Z,88.53
2022-10-18T23:12:17.158Z,89.71
2022-10-18T23:14:44.580Z,88.72
2022-10-18T23:17:11.178Z,89.07
2022-10-18T23:19:37.759Z,88.92
2022-10-18T23:22:04.320Z,89.35
2022-10-18T23:24:30.914Z,89.84
2022-10-18T23:26:57.477Z,89.70
2022-10-18T23:29:24.117Z,89.64
2022-10-18T23:31:50.626Z,90.41
2022-10-18T23:34:17.233Z,90.38
2022-10-18T23:39:11.324Z,89.27
2022-10-18T23:41:37.912Z,89.03
2022-10-18T23:44:04.580Z,89.47
2022-10-18T23:46:31.239Z,89.18
2022-10-18T23:48:57.790Z,89.45
2022-10-18T23:51:24.331Z,89.43
2022-10-18T23:53:50.874Z,89.05
2022-10-18T23:56:17.419Z,89.48
2022-10-18T23:58:45.181Z,89.30
